Bliss, Idaho
Current Conditions -  °F | °C
As of 9:53 PM on Wednesday 22 Oct 2014 (Local Time) from KJER Reporting Station
Few Clouds Few Clouds  
Wind Chill: 52°   Ceiling: Unl
Heat Index: 52°   Visibility: 10mi
Dew Point: 26°   Wind: 14mph
Humidity: 37%   Direction: 50°NE
Pressure: 30.08"   Gusts: NA
Location:  42.93°N, 114.95°W
Report Text: KJER 230353Z AUTO 05012KT 10SM FEW120 11/M03 A3008 RMK AO2 SLP182 T01111033
Loading
Personal Weather Stations






























Interactive Weather Map
Tropical Storm Tracking
New forecast layout! Learn more

10-Day Weather Forecast

Advertisements
Track Severe Weather on mobile